sensor_id;sensor_type;location;lat;lon;timestamp;pressure;altitude;pressure_sealevel;temperature;humidity
69223;BME280;56514;51.816;-0.026;2023-03-23T00:02:44;99020.72;;;11.76;76.50
69223;BME280;56514;51.816;-0.026;2023-03-23T00:05:51;99020.69;;;11.68;77.21
69223;BME280;56514;51.816;-0.026;2023-03-23T00:08:56;99020.00;;;11.66;76.82
69223;BME280;56514;51.816;-0.026;2023-03-23T00:12:08;99023.47;;;11.67;76.23
69223;BME280;56514;51.816;-0.026;2023-03-23T00:15:18;99036.25;;;11.62;76.98
69223;BME280;56514;51.816;-0.026;2023-03-23T00:18:27;99039.22;;;11.76;75.76
69223;BME280;56514;51.816;-0.026;2023-03-23T00:21:37;99048.44;;;11.72;75.66
69223;BME280;56514;51.816;-0.026;2023-03-23T00:24:48;99072.66;;;11.68;70.80
69223;BME280;56514;51.816;-0.026;2023-03-23T00:28:01;99081.31;;;10.89;71.15
69223;BME280;56514;51.816;-0.026;2023-03-23T00:31:12;99075.97;;;10.34;75.02
69223;BME280;56514;51.816;-0.026;2023-03-23T00:34:23;99100.25;;;10.00;77.33
69223;BME280;56514;51.816;-0.026;2023-03-23T00:37:11;99090.44;;;9.73;79.05
69223;BME280;56514;51.816;-0.026;2023-03-23T00:39:56;99127.16;;;9.75;78.89
69223;BME280;56514;51.816;-0.026;2023-03-23T00:42:44;99117.31;;;9.86;78.46
69223;BME280;56514;51.816;-0.026;2023-03-23T00:49:03;99126.19;;;9.85;79.23
69223;BME280;56514;51.816;-0.026;2023-03-23T00:51:49;99132.00;;;9.89;79.23
69223;BME280;56514;51.816;-0.026;2023-03-23T00:54:43;99132.13;;;9.78;79.69
69223;BME280;56514;51.816;-0.026;2023-03-23T00:57:48;99127.69;;;9.78;79.80
69223;BME280;56514;51.816;-0.026;2023-03-23T01:00:42;99143.91;;;9.74;80.15
69223;BME280;56514;51.816;-0.026;2023-03-23T01:03:43;99126.28;;;9.65;80.21
69223;BME280;56514;51.816;-0.026;2023-03-23T01:06:35;99136.41;;;9.69;80.36
69223;BME280;56514;51.816;-0.026;2023-03-23T01:09:23;99147.91;;;9.68;80.28
69223;BME280;56514;51.816;-0.026;2023-03-23T01:12:12;99152.22;;;9.60;80.53
69223;BME280;56514;51.816;-0.026;2023-03-23T01:15:05;99121.31;;;9.71;79.90
69223;BME280;56514;51.816;-0.026;2023-03-23T01:17:53;99137.94;;;9.62;80.20
69223;BME280;56514;51.816;-0.026;2023-03-23T01:20:41;99119.34;;;9.54;80.46
69223;BME280;56514;51.816;-0.026;2023-03-23T01:23:27;99120.06;;;9.56;80.74
69223;BME280;56514;51.816;-0.026;2023-03-23T01:26:14;99115.22;;;9.61;79.98
69223;BME280;56514;51.816;-0.026;2023-03-23T01:29:00;99132.81;;;9.61;78.84
69223;BME280;56514;51.816;-0.026;2023-03-23T01:31:48;99124.31;;;9.48;79.55
69223;BME280;56514;51.816;-0.026;2023-03-23T01:34:33;99139.31;;;9.57;78.52
69223;BME280;56514;51.816;-0.026;2023-03-23T01:37:18;99126.84;;;9.49;79.13
69223;BME280;56514;51.816;-0.026;2023-03-23T01:40:05;99143.16;;;9.43;78.87
69223;BME280;56514;51.816;-0.026;2023-03-23T01:42:50;99121.00;;;9.46;78.42
69223;BME280;56514;51.816;-0.026;2023-03-23T01:45:35;99119.19;;;9.46;78.34
69223;BME280;56514;51.816;-0.026;2023-03-23T01:48:29;99139.53;;;9.35;78.85
69223;BME280;56514;51.816;-0.026;2023-03-23T01:51:19;99141.22;;;9.45;78.98
69223;BME280;56514;51.816;-0.026;2023-03-23T01:54:07;99132.66;;;9.53;78.53
69223;BME280;56514;51.816;-0.026;2023-03-23T01:56:59;99135.00;;;9.56;78.57
69223;BME280;56514;51.816;-0.026;2023-03-23T01:59:50;99143.78;;;9.66;78.54
69223;BME280;56514;51.816;-0.026;2023-03-23T02:02:37;99139.88;;;9.60;78.76
69223;BME280;56514;51.816;-0.026;2023-03-23T02:05:30;99142.50;;;9.60;78.91
69223;BME280;56514;51.816;-0.026;2023-03-23T02:08:17;99140.88;;;9.69;78.18
69223;BME280;56514;51.816;-0.026;2023-03-23T02:11:16;99143.91;;;9.64;78.22
69223;BME280;56514;51.816;-0.026;2023-03-23T02:14:01;99143.88;;;9.55;78.81
69223;BME280;56514;51.816;-0.026;2023-03-23T02:17:45;99153.16;;;9.59;78.91
69223;BME280;56514;51.816;-0.026;2023-03-23T02:20:33;99150.94;;;9.54;78.71
69223;BME280;56514;51.816;-0.026;2023-03-23T02:23:48;99147.34;;;9.65;78.56
69223;BME280;56514;51.816;-0.026;2023-03-23T02:29:56;99149.84;;;9.57;79.58
69223;BME280;56514;51.816;-0.026;2023-03-23T02:35:43;99156.47;;;9.51;79.54
69223;BME280;56514;51.816;-0.026;2023-03-23T02:38:40;99154.72;;;9.61;79.52
69223;BME280;56514;51.816;-0.026;2023-03-23T02:41:30;99152.34;;;9.58;79.61
69223;BME280;56514;51.816;-0.026;2023-03-23T02:44:17;99157.22;;;9.63;79.95
69223;BME280;56514;51.816;-0.026;2023-03-23T02:47:06;99149.72;;;9.68;79.86
69223;BME280;56514;51.816;-0.026;2023-03-23T02:49:54;99150.38;;;9.60;80.01
69223;BME280;56514;51.816;-0.026;2023-03-23T02:52:42;99143.44;;;9.50;80.06
69223;BME280;56514;51.816;-0.026;2023-03-23T02:55:29;99154.00;;;9.59;79.98
69223;BME280;56514;51.816;-0.026;2023-03-23T02:58:15;99148.03;;;9.57;80.21
69223;BME280;56514;51.816;-0.026;2023-03-23T03:02:01;99159.00;;;9.81;78.64
69223;BME280;56514;51.816;-0.026;2023-03-23T03:04:24;99153.47;;;9.84;78.49
69223;BME280;56514;51.816;-0.026;2023-03-23T03:07:22;99166.25;;;9.89;78.04
69223;BME280;56514;51.816;-0.026;2023-03-23T03:10:19;99169.72;;;9.99;77.69
69223;BME280;56514;51.816;-0.026;2023-03-23T03:13:39;99165.53;;;9.87;78.42
69223;BME280;56514;51.816;-0.026;2023-03-23T03:16:37;99164.00;;;9.75;78.70
69223;BME280;56514;51.816;-0.026;2023-03-23T03:19:30;99178.72;;;9.87;77.71
69223;BME280;56514;51.816;-0.026;2023-03-23T03:22:18;99168.59;;;9.92;77.52
69223;BME280;56514;51.816;-0.026;2023-03-23T03:25:06;99165.28;;;9.90;77.56
69223;BME280;56514;51.816;-0.026;2023-03-23T03:27:52;99162.34;;;9.83;77.91
69223;BME280;56514;51.816;-0.026;2023-03-23T03:30:37;99165.66;;;9.76;78.27
69223;BME280;56514;51.816;-0.026;2023-03-23T03:33:24;99165.53;;;9.77;77.93
69223;BME280;56514;51.816;-0.026;2023-03-23T03:36:18;99172.03;;;9.83;77.28
69223;BME280;56514;51.816;-0.026;2023-03-23T03:39:06;99169.97;;;9.67;78.14
69223;BME280;56514;51.816;-0.026;2023-03-23T03:41:53;99171.75;;;9.67;78.08
69223;BME280;56514;51.816;-0.026;2023-03-23T03:44:38;99176.31;;;9.65;78.18
69223;BME280;56514;51.816;-0.026;2023-03-23T03:47:23;99183.81;;;9.69;77.41
69223;BME280;56514;51.816;-0.026;2023-03-23T03:50:09;99179.81;;;9.75;77.08
69223;BME280;56514;51.816;-0.026;2023-03-23T03:52:54;99179.38;;;9.70;77.52
69223;BME280;56514;51.816;-0.026;2023-03-23T03:55:39;99184.63;;;9.70;77.34
69223;BME280;56514;51.816;-0.026;2023-03-23T03:58:29;99182.41;;;9.65;77.28
69223;BME280;56514;51.816;-0.026;2023-03-23T04:01:18;99192.28;;;9.73;76.95
69223;BME280;56514;51.816;-0.026;2023-03-23T04:04:04;99195.28;;;9.59;77.23
69223;BME280;56514;51.816;-0.026;2023-03-23T04:06:51;99205.97;;;9.67;77.23
69223;BME280;56514;51.816;-0.026;2023-03-23T04:09:37;99209.72;;;9.64;77.08
69223;BME280;56514;51.816;-0.026;2023-03-23T04:12:23;99203.31;;;9.57;77.64
69223;BME280;56514;51.816;-0.026;2023-03-23T04:15:12;99202.09;;;9.61;77.32
69223;BME280;56514;51.816;-0.026;2023-03-23T04:17:57;99203.63;;;9.64;77.08
69223;BME280;56514;51.816;-0.026;2023-03-23T04:20:43;99223.28;;;9.60;77.44
69223;BME280;56514;51.816;-0.026;2023-03-23T04:23:30;99210.97;;;9.70;76.78
69223;BME280;56514;51.816;-0.026;2023-03-23T04:26:18;99209.00;;;9.62;77.11
69223;BME280;56514;51.816;-0.026;2023-03-23T04:29:02;99216.66;;;9.75;76.35
69223;BME280;56514;51.816;-0.026;2023-03-23T04:31:48;99221.38;;;9.71;76.48
69223;BME280;56514;51.816;-0.026;2023-03-23T04:34:34;99218.28;;;9.66;76.67
69223;BME280;56514;51.816;-0.026;2023-03-23T04:37:20;99225.38;;;9.66;76.54
69223;BME280;56514;51.816;-0.026;2023-03-23T04:40:06;99225.38;;;9.66;76.72
69223;BME280;56514;51.816;-0.026;2023-03-23T04:42:52;99228.81;;;9.57;77.38
69223;BME280;56514;51.816;-0.026;2023-03-23T04:45:42;99228.56;;;9.60;77.07
69223;BME280;56514;51.816;-0.026;2023-03-23T04:48:30;99233.69;;;9.61;76.77
69223;BME280;56514;51.816;-0.026;2023-03-23T04:51:17;99241.81;;;9.49;77.39
69223;BME280;56514;51.816;-0.026;2023-03-23T04:54:03;99241.81;;;9.49;77.74
69223;BME280;56514;51.816;-0.026;2023-03-23T04:56:47;99244.00;;;9.44;77.57
69223;BME280;56514;51.816;-0.026;2023-03-23T04:59:33;99245.91;;;9.42;77.82
69223;BME280;56514;51.816;-0.026;2023-03-23T05:02:17;99243.41;;;9.40;77.49
69223;BME280;56514;51.816;-0.026;2023-03-23T05:05:03;99247.50;;;9.24;78.21
69223;BME280;56514;51.816;-0.026;2023-03-23T05:07:49;99242.56;;;9.30;78.03
69223;BME280;56514;51.816;-0.026;2023-03-23T05:10:34;99241.31;;;9.25;78.19
69223;BME280;56514;51.816;-0.026;2023-03-23T05:13:20;99244.59;;;9.27;77.85
69223;BME280;56514;51.816;-0.026;2023-03-23T05:16:05;99247.50;;;9.24;78.02
69223;BME280;56514;51.816;-0.026;2023-03-23T05:18:50;99252.25;;;9.30;78.22
69223;BME280;56514;51.816;-0.026;2023-03-23T05:21:36;99262.09;;;9.28;77.79
69223;BME280;56514;51.816;-0.026;2023-03-23T05:24:21;99259.97;;;9.22;77.54
69223;BME280;56514;51.816;-0.026;2023-03-23T05:27:07;99263.13;;;9.16;78.28
69223;BME280;56514;51.816;-0.026;2023-03-23T05:29:52;99254.41;;;9.15;77.91
69223;BME280;56514;51.816;-0.026;2023-03-23T05:32:37;99262.16;;;9.17;78.20
69223;BME280;56514;51.816;-0.026;2023-03-23T05:35:22;99256.19;;;9.15;78.16
69223;BME280;56514;51.816;-0.026;2023-03-23T05:38:07;99261.19;;;9.18;78.06
69223;BME280;56514;51.816;-0.026;2023-03-23T05:40:52;99262.41;;;9.14;77.99
69223;BME280;56514;51.816;-0.026;2023-03-23T05:43:39;99262.69;;;9.11;78.61
69223;BME280;56514;51.816;-0.026;2023-03-23T05:46:24;99266.91;;;9.23;77.69
69223;BME280;56514;51.816;-0.026;2023-03-23T05:49:15;99260.38;;;9.17;78.10
69223;BME280;56514;51.816;-0.026;2023-03-23T05:52:03;99270.78;;;9.28;77.75
69223;BME280;56514;51.816;-0.026;2023-03-23T05:54:52;99268.03;;;9.30;78.10
69223;BME280;56514;51.816;-0.026;2023-03-23T05:57:37;99271.94;;;9.35;78.47
69223;BME280;56514;51.816;-0.026;2023-03-23T06:00:22;99265.31;;;9.41;78.04
69223;BME280;56514;51.816;-0.026;2023-03-23T06:03:12;99275.31;;;9.47;77.92
69223;BME280;56514;51.816;-0.026;2023-03-23T06:06:00;99269.88;;;9.39;78.30
69223;BME280;56514;51.816;-0.026;2023-03-23T06:08:49;99275.63;;;9.53;77.78
69223;BME280;56514;51.816;-0.026;2023-03-23T06:11:35;99271.41;;;9.41;78.35
69223;BME280;56514;51.816;-0.026;2023-03-23T06:14:21;99270.59;;;9.41;78.78
69223;BME280;56514;51.816;-0.026;2023-03-23T06:17:11;99264.91;;;9.45;79.20
69223;BME280;56514;51.816;-0.026;2023-03-23T06:19:59;99268.13;;;9.49;79.02
69223;BME280;56514;51.816;-0.026;2023-03-23T06:22:45;99270.38;;;9.53;78.87
69223;BME280;56514;51.816;-0.026;2023-03-23T06:25:34;99269.50;;;9.53;78.74
69223;BME280;56514;51.816;-0.026;2023-03-23T06:28:23;99271.72;;;9.48;79.41
69223;BME280;56514;51.816;-0.026;2023-03-23T06:31:12;99259.00;;;9.53;79.53
69223;BME280;56514;51.816;-0.026;2023-03-23T06:33:59;99267.25;;;9.69;78.83
69223;BME280;56514;51.816;-0.026;2023-03-23T06:36:45;99266.56;;;9.76;78.83
69223;BME280;56514;51.816;-0.026;2023-03-23T06:39:30;99271.00;;;9.76;78.91
69223;BME280;56514;51.816;-0.026;2023-03-23T06:42:19;99267.38;;;9.77;78.93
69223;BME280;56514;51.816;-0.026;2023-03-23T06:45:05;99262.56;;;9.82;78.58
69223;BME280;56514;51.816;-0.026;2023-03-23T06:47:54;99259.53;;;9.96;78.46
69223;BME280;56514;51.816;-0.026;2023-03-23T06:50:45;99263.47;;;10.11;78.16
69223;BME280;56514;51.816;-0.026;2023-03-23T06:53:31;99254.31;;;10.15;77.59
69223;BME280;56514;51.816;-0.026;2023-03-23T06:56:17;99265.59;;;10.26;76.86
69223;BME280;56514;51.816;-0.026;2023-03-23T06:59:12;99255.19;;;10.25;77.09
69223;BME280;56514;51.816;-0.026;2023-03-23T07:01:58;99256.13;;;10.24;77.51
69223;BME280;56514;51.816;-0.026;2023-03-23T07:04:51;99263.09;;;10.25;77.92
69223;BME280;56514;51.816;-0.026;2023-03-23T07:07:37;99257.00;;;10.34;77.62
69223;BME280;56514;51.816;-0.026;2023-03-23T07:10:23;99249.22;;;10.42;77.28
69223;BME280;56514;51.816;-0.026;2023-03-23T07:13:15;99254.75;;;10.48;77.14
69223;BME280;56514;51.816;-0.026;2023-03-23T07:16:03;99258.25;;;10.58;76.94
69223;BME280;56514;51.816;-0.026;2023-03-23T07:18:49;99255.59;;;10.58;77.29
69223;BME280;56514;51.816;-0.026;2023-03-23T07:21:35;99253.22;;;10.65;77.02
69223;BME280;56514;51.816;-0.026;2023-03-23T07:24:20;99247.13;;;10.74;76.00
69223;BME280;56514;51.816;-0.026;2023-03-23T07:27:06;99251.69;;;10.72;76.11
69223;BME280;56514;51.816;-0.026;2023-03-23T07:29:53;99253.06;;;10.76;76.14
69223;BME280;56514;51.816;-0.026;2023-03-23T07:32:45;99248.91;;;10.83;75.15
69223;BME280;56514;51.816;-0.026;2023-03-23T07:35:34;99252.13;;;10.77;76.51
69223;BME280;56514;51.816;-0.026;2023-03-23T07:38:21;99245.00;;;10.87;75.91
69223;BME280;56514;51.816;-0.026;2023-03-23T07:41:10;99241.09;;;10.91;77.03
69223;BME280;56514;51.816;-0.026;2023-03-23T07:44:00;99237.72;;;11.18;77.31
69223;BME280;56514;51.816;-0.026;2023-03-23T07:46:46;99249.13;;;11.55;76.40
69223;BME280;56514;51.816;-0.026;2023-03-23T07:49:32;99249.19;;;11.72;76.23
69223;BME280;56514;51.816;-0.026;2023-03-23T07:52:29;99246.91;;;12.04;75.11
69223;BME280;56514;51.816;-0.026;2023-03-23T07:55:23;99235.78;;;12.28;73.61
69223;BME280;56514;51.816;-0.026;2023-03-23T07:58:13;99242.03;;;12.27;71.68
69223;BME280;56514;51.816;-0.026;2023-03-23T08:01:04;99247.97;;;12.11;73.09
69223;BME280;56514;51.816;-0.026;2023-03-23T08:03:50;99257.44;;;12.14;73.64
69223;BME280;56514;51.816;-0.026;2023-03-23T08:06:48;99266.56;;;12.19;72.84
69223;BME280;56514;51.816;-0.026;2023-03-23T08:09:36;99263.94;;;12.37;71.61
69223;BME280;56514;51.816;-0.026;2023-03-23T08:12:25;99270.81;;;12.30;72.48
69223;BME280;56514;51.816;-0.026;2023-03-23T08:15:12;99257.44;;;12.49;70.44
69223;BME280;56514;51.816;-0.026;2023-03-23T08:17:59;99267.50;;;12.46;72.09
69223;BME280;56514;51.816;-0.026;2023-03-23T08:20:45;99266.66;;;12.63;71.16
69223;BME280;56514;51.816;-0.026;2023-03-23T08:23:31;99273.28;;;12.84;71.42
69223;BME280;56514;51.816;-0.026;2023-03-23T08:26:17;99272.56;;;13.17;70.12
69223;BME280;56514;51.816;-0.026;2023-03-23T08:29:02;99268.78;;;13.20;70.39
69223;BME280;56514;51.816;-0.026;2023-03-23T08:31:48;99267.19;;;13.35;69.48
69223;BME280;56514;51.816;-0.026;2023-03-23T08:34:34;99267.34;;;13.59;67.58
69223;BME280;56514;51.816;-0.026;2023-03-23T08:37:20;99269.66;;;13.54;67.45
69223;BME280;56514;51.816;-0.026;2023-03-23T08:40:07;99257.06;;;13.56;66.47
69223;BME280;56514;51.816;-0.026;2023-03-23T08:42:55;99258.53;;;13.50;68.29
69223;BME280;56514;51.816;-0.026;2023-03-23T08:45:41;99249.94;;;13.56;68.81
69223;BME280;56514;51.816;-0.026;2023-03-23T08:48:26;99254.03;;;13.84;66.14
69223;BME280;56514;51.816;-0.026;2023-03-23T08:51:12;99257.94;;;14.06;63.73
69223;BME280;56514;51.816;-0.026;2023-03-23T08:54:01;99257.94;;;14.14;61.47
69223;BME280;56514;51.816;-0.026;2023-03-23T08:56:48;99251.63;;;14.07;61.85
69223;BME280;56514;51.816;-0.026;2023-03-23T08:59:35;99256.41;;;14.03;60.57
69223;BME280;56514;51.816;-0.026;2023-03-23T09:02:20;99260.38;;;13.99;59.95
69223;BME280;56514;51.816;-0.026;2023-03-23T09:05:09;99252.72;;;13.88;60.92
69223;BME280;56514;51.816;-0.026;2023-03-23T09:07:57;99266.47;;;13.84;60.85
69223;BME280;56514;51.816;-0.026;2023-03-23T09:10:45;99265.06;;;14.05;60.96
69223;BME280;56514;51.816;-0.026;2023-03-23T09:13:31;99268.94;;;14.27;58.46
69223;BME280;56514;51.816;-0.026;2023-03-23T09:16:16;99269.28;;;14.24;59.21
69223;BME280;56514;51.816;-0.026;2023-03-23T09:19:01;99260.00;;;14.28;58.74
69223;BME280;56514;51.816;-0.026;2023-03-23T09:21:47;99260.69;;;14.38;59.00
69223;BME280;56514;51.816;-0.026;2023-03-23T09:24:31;99254.69;;;14.28;58.96
69223;BME280;56514;51.816;-0.026;2023-03-23T09:27:16;99260.94;;;14.19;59.18
69223;BME280;56514;51.816;-0.026;2023-03-23T09:30:04;99253.59;;;14.05;60.20
69223;BME280;56514;51.816;-0.026;2023-03-23T09:32:50;99262.91;;;14.17;59.36
69223;BME280;56514;51.816;-0.026;2023-03-23T09:35:35;99255.38;;;14.38;58.98
69223;BME280;56514;51.816;-0.026;2023-03-23T09:38:22;99261.34;;;14.48;58.27
69223;BME280;56514;51.816;-0.026;2023-03-23T09:41:12;99257.19;;;14.54;57.39
69223;BME280;56514;51.816;-0.026;2023-03-23T09:49:50;99251.09;;;14.53;58.02
69223;BME280;56514;51.816;-0.026;2023-03-23T09:55:34;99251.09;;;14.85;56.41
69223;BME280;56514;51.816;-0.026;2023-03-23T10:01:51;99247.06;;;15.29;54.16
69223;BME280;56514;51.816;-0.026;2023-03-23T10:04:47;99244.22;;;15.31;54.49
69223;BME280;56514;51.816;-0.026;2023-03-23T10:07:32;99243.22;;;15.48;54.35
69223;BME280;56514;51.816;-0.026;2023-03-23T10:10:18;99246.81;;;15.63;53.77
69223;BME280;56514;51.816;-0.026;2023-03-23T10:13:25;99256.06;;;15.75;53.36
69223;BME280;56514;51.816;-0.026;2023-03-23T10:19:59;99256.59;;;15.70;53.30
69223;BME280;56514;51.816;-0.026;2023-03-23T10:26:01;99259.13;;;15.56;53.08
69223;BME280;56514;51.816;-0.026;2023-03-23T10:28:54;99256.94;;;15.67;52.38
69223;BME280;56514;51.816;-0.026;2023-03-23T10:31:58;99252.69;;;15.89;52.63
69223;BME280;56514;51.816;-0.026;2023-03-23T10:34:54;99254.59;;;16.34;50.10
69223;BME280;56514;51.816;-0.026;2023-03-23T10:37:56;99261.09;;;16.62;50.47
69223;BME280;56514;51.816;-0.026;2023-03-23T10:40:55;99258.97;;;16.80;49.53
69223;BME280;56514;51.816;-0.026;2023-03-23T10:43:41;99262.72;;;16.85;50.55
69223;BME280;56514;51.816;-0.026;2023-03-23T10:46:33;99244.97;;;16.78;48.96
69223;BME280;56514;51.816;-0.026;2023-03-23T10:49:28;99258.91;;;16.65;49.81
69223;BME280;56514;51.816;-0.026;2023-03-23T10:52:35;99277.44;;;16.59;49.89
69223;BME280;56514;51.816;-0.026;2023-03-23T10:55:23;99251.47;;;16.61;50.03
69223;BME280;56514;51.816;-0.026;2023-03-23T10:58:11;99248.25;;;16.88;50.58
69223;BME280;56514;51.816;-0.026;2023-03-23T11:00:57;99260.63;;;17.18;50.65
69223;BME280;56514;51.816;-0.026;2023-03-23T11:03:47;99255.53;;;17.45;45.77
69223;BME280;56514;51.816;-0.026;2023-03-23T11:06:35;99256.13;;;17.18;46.59
69223;BME280;56514;51.816;-0.026;2023-03-23T11:09:39;99260.31;;;16.98;47.49
69223;BME280;56514;51.816;-0.026;2023-03-23T11:12:25;99249.97;;;17.18;47.94
69223;BME280;56514;51.816;-0.026;2023-03-23T11:15:36;99249.16;;;17.32;47.70
69223;BME280;56514;51.816;-0.026;2023-03-23T11:18:37;99266.56;;;17.57;46.91
69223;BME280;56514;51.816;-0.026;2023-03-23T11:21:23;99270.22;;;17.41;46.41
69223;BME280;56514;51.816;-0.026;2023-03-23T11:24:09;99246.00;;;17.14;47.06
69223;BME280;56514;51.816;-0.026;2023-03-23T11:26:57;99244.56;;;16.89;47.68
69223;BME280;56514;51.816;-0.026;2023-03-23T11:29:54;99249.47;;;17.14;47.91
69223;BME280;56514;51.816;-0.026;2023-03-23T11:32:43;99250.63;;;17.34;48.41
69223;BME280;56514;51.816;-0.026;2023-03-23T11:35:29;99243.88;;;17.61;48.33
69223;BME280;56514;51.816;-0.026;2023-03-23T11:38:19;99254.00;;;18.01;46.30
69223;BME280;56514;51.816;-0.026;2023-03-23T11:41:10;99247.41;;;17.97;47.35
69223;BME280;56514;51.816;-0.026;2023-03-23T11:43:56;99251.81;;;18.05;47.56
69223;BME280;56514;51.816;-0.026;2023-03-23T11:46:59;99250.47;;;17.80;47.56
69223;BME280;56514;51.816;-0.026;2023-03-23T11:55:55;99247.81;;;16.01;53.12
69223;BME280;56514;51.816;-0.026;2023-03-23T11:58:42;99265.38;;;15.71;53.42
69223;BME280;56514;51.816;-0.026;2023-03-23T12:13:51;99260.59;;;14.06;63.74
69223;BME280;56514;51.816;-0.026;2023-03-23T12:19:46;99260.19;;;13.00;72.59
69223;BME280;56514;51.816;-0.026;2023-03-23T12:26:08;99249.75;;;12.99;75.31
69223;BME280;56514;51.816;-0.026;2023-03-23T12:38:30;99246.28;;;14.49;72.33
69223;BME280;56514;51.816;-0.026;2023-03-23T12:41:22;99245.09;;;14.75;70.52
69223;BME280;56514;51.816;-0.026;2023-03-23T12:44:11;99225.19;;;15.03;66.21
69223;BME280;56514;51.816;-0.026;2023-03-23T12:47:11;99237.72;;;15.33;63.77
69223;BME280;56514;51.816;-0.026;2023-03-23T12:50:35;99229.25;;;15.46;63.12
69223;BME280;56514;51.816;-0.026;2023-03-23T12:53:25;99232.41;;;15.49;63.73
69223;BME280;56514;51.816;-0.026;2023-03-23T12:56:22;99228.56;;;15.60;62.41
69223;BME280;56514;51.816;-0.026;2023-03-23T12:59:19;99225.66;;;15.77;61.90
69223;BME280;56514;51.816;-0.026;2023-03-23T13:02:27;99217.25;;;15.97;61.54
69223;BME280;56514;51.816;-0.026;2023-03-23T13:08:17;99197.69;;;16.80;58.53
69223;BME280;56514;51.816;-0.026;2023-03-23T13:11:10;99200.72;;;17.14;56.10
69223;BME280;56514;51.816;-0.026;2023-03-23T13:14:32;99200.50;;;17.01;54.57
69223;BME280;56514;51.816;-0.026;2023-03-23T13:23:48;99175.09;;;17.92;51.62
69223;BME280;56514;51.816;-0.026;2023-03-23T13:26:40;99174.97;;;17.79;53.76
69223;BME280;56514;51.816;-0.026;2023-03-23T13:29:27;99184.41;;;17.96;52.58
69223;BME280;56514;51.816;-0.026;2023-03-23T13:32:17;99188.41;;;18.07;51.36
69223;BME280;56514;51.816;-0.026;2023-03-23T13:35:04;99184.34;;;18.46;48.20
69223;BME280;56514;51.816;-0.026;2023-03-23T13:37:51;99172.88;;;18.52;47.64
69223;BME280;56514;51.816;-0.026;2023-03-23T13:40:42;99187.34;;;19.88;45.32
69223;BME280;56514;51.816;-0.026;2023-03-23T13:43:31;99177.66;;;20.60;42.98
69223;BME280;56514;51.816;-0.026;2023-03-23T13:46:28;99180.53;;;21.11;40.88
69223;BME280;56514;51.816;-0.026;2023-03-23T13:49:20;99176.44;;;20.95;40.03
69223;BME280;56514;51.816;-0.026;2023-03-23T13:52:16;99163.31;;;19.54;41.81
69223;BME280;56514;51.816;-0.026;2023-03-23T14:01:11;99159.00;;;18.42;45.93
69223;BME280;56514;51.816;-0.026;2023-03-23T14:03:59;99146.72;;;19.65;43.26
69223;BME280;56514;51.816;-0.026;2023-03-23T14:06:48;99130.84;;;20.49;40.53
69223;BME280;56514;51.816;-0.026;2023-03-23T14:09:40;99136.81;;;19.59;41.98
69223;BME280;56514;51.816;-0.026;2023-03-23T14:12:28;99143.88;;;19.32;42.99
69223;BME280;56514;51.816;-0.026;2023-03-23T14:15:14;99150.53;;;19.15;42.05
69223;BME280;56514;51.816;-0.026;2023-03-23T14:18:03;99154.75;;;18.96;43.06
69223;BME280;56514;51.816;-0.026;2023-03-23T14:20:49;99160.13;;;19.71;41.82
69223;BME280;56514;51.816;-0.026;2023-03-23T14:23:35;99159.91;;;20.46;40.11
69223;BME280;56514;51.816;-0.026;2023-03-23T14:26:20;99155.28;;;19.54;41.30
69223;BME280;56514;51.816;-0.026;2023-03-23T14:29:06;99168.22;;;18.61;43.10
69223;BME280;56514;51.816;-0.026;2023-03-23T14:31:58;99178.13;;;17.89;44.99
69223;BME280;56514;51.816;-0.026;2023-03-23T14:34:46;99160.66;;;17.51;46.65
69223;BME280;56514;51.816;-0.026;2023-03-23T14:37:32;99164.84;;;17.31;46.23
69223;BME280;56514;51.816;-0.026;2023-03-23T14:40:18;99174.63;;;17.38;46.02
69223;BME280;56514;51.816;-0.026;2023-03-23T14:43:03;99164.88;;;17.45;46.46
69223;BME280;56514;51.816;-0.026;2023-03-23T14:45:54;99158.22;;;17.71;45.73
69223;BME280;56514;51.816;-0.026;2023-03-23T14:48:39;99152.63;;;17.66;46.61
69223;BME280;56514;51.816;-0.026;2023-03-23T14:51:25;99142.31;;;17.77;45.41
69223;BME280;56514;51.816;-0.026;2023-03-23T14:54:14;99128.03;;;18.06;44.26
69223;BME280;56514;51.816;-0.026;2023-03-23T14:57:10;99119.44;;;17.89;44.45
69223;BME280;56514;51.816;-0.026;2023-03-23T14:59:56;99121.00;;;17.63;45.17
69223;BME280;56514;51.816;-0.026;2023-03-23T15:02:45;99125.34;;;17.34;46.90
69223;BME280;56514;51.816;-0.026;2023-03-23T15:05:37;99124.50;;;17.34;46.45
69223;BME280;56514;51.816;-0.026;2023-03-23T15:08:27;99116.63;;;17.26;46.44
69223;BME280;56514;51.816;-0.026;2023-03-23T15:14:19;99120.38;;;16.73;48.67
69223;BME280;56514;51.816;-0.026;2023-03-23T15:17:09;99106.88;;;16.60;49.01
69223;BME280;56514;51.816;-0.026;2023-03-23T15:19:56;99096.31;;;16.67;49.72
69223;BME280;56514;51.816;-0.026;2023-03-23T15:22:46;99107.53;;;16.77;50.03
69223;BME280;56514;51.816;-0.026;2023-03-23T15:25:33;99107.16;;;16.94;49.46
69223;BME280;56514;51.816;-0.026;2023-03-23T15:28:21;99107.63;;;17.12;47.94
69223;BME280;56514;51.816;-0.026;2023-03-23T15:31:07;99105.78;;;16.98;49.04
69223;BME280;56514;51.816;-0.026;2023-03-23T15:33:57;99100.81;;;16.66;50.09
69223;BME280;56514;51.816;-0.026;2023-03-23T15:36:44;99106.38;;;16.20;51.27
69223;BME280;56514;51.816;-0.026;2023-03-23T15:39:30;99121.47;;;15.74;54.92
69223;BME280;56514;51.816;-0.026;2023-03-23T15:42:28;99131.44;;;15.49;57.25
69223;BME280;56514;51.816;-0.026;2023-03-23T15:48:10;99129.25;;;14.98;60.65
69223;BME280;56514;51.816;-0.026;2023-03-23T15:50:56;99134.91;;;14.95;61.53
69223;BME280;56514;51.816;-0.026;2023-03-23T15:53:42;99132.66;;;14.76;62.16
69223;BME280;56514;51.816;-0.026;2023-03-23T15:56:28;99135.97;;;14.46;63.90
69223;BME280;56514;51.816;-0.026;2023-03-23T15:59:14;99144.94;;;14.53;66.06
69223;BME280;56514;51.816;-0.026;2023-03-23T16:01:59;99148.38;;;14.22;66.50
69223;BME280;56514;51.816;-0.026;2023-03-23T16:04:45;99136.72;;;13.74;68.41
69223;BME280;56514;51.816;-0.026;2023-03-23T16:07:30;99137.19;;;13.54;70.07
69223;BME280;56514;51.816;-0.026;2023-03-23T16:10:21;99134.13;;;13.33;71.94
69223;BME280;56514;51.816;-0.026;2023-03-23T16:13:06;99127.13;;;13.16;73.39
69223;BME280;56514;51.816;-0.026;2023-03-23T16:15:51;99135.41;;;13.21;73.07
69223;BME280;56514;51.816;-0.026;2023-03-23T16:18:36;99130.06;;;13.13;73.79
69223;BME280;56514;51.816;-0.026;2023-03-23T16:21:21;99123.94;;;13.12;74.25